sensor_id;sensor_type;location;lat;lon;timestamp;P1;durP1;ratioP1;P2;durP2;ratioP2
12263;SDS011;6194;49.010;8.414;2023-04-06T00:00:39;8.53;;;5.87;;
12263;SDS011;6194;49.010;8.414;2023-04-06T00:03:04;8.07;;;6.00;;
12263;SDS011;6194;49.010;8.414;2023-04-06T00:05:30;8.07;;;6.10;;
12263;SDS011;6194;49.010;8.414;2023-04-06T00:07:59;6.30;;;5.57;;
12263;SDS011;6194;49.010;8.414;2023-04-06T00:10:24;6.73;;;5.90;;
12263;SDS011;6194;49.010;8.414;2023-04-06T00:12:51;7.30;;;6.17;;
12263;SDS011;6194;49.010;8.414;2023-04-06T00:15:17;9.53;;;6.10;;
12263;SDS011;6194;49.010;8.414;2023-04-06T00:17:42;6.30;;;5.70;;
12263;SDS011;6194;49.010;8.414;2023-04-06T00:20:08;8.37;;;5.77;;
12263;SDS011;6194;49.010;8.414;2023-04-06T00:22:34;8.40;;;6.00;;
12263;SDS011;6194;49.010;8.414;2023-04-06T00:25:00;6.40;;;5.53;;
12263;SDS011;6194;49.010;8.414;2023-04-06T00:27:26;6.93;;;5.73;;
12263;SDS011;6194;49.010;8.414;2023-04-06T00:29:52;6.27;;;5.63;;
12263;SDS011;6194;49.010;8.414;2023-04-06T00:32:17;8.60;;;6.23;;
12263;SDS011;6194;49.010;8.414;2023-04-06T00:34:43;9.87;;;5.60;;
12263;SDS011;6194;49.010;8.414;2023-04-06T00:37:10;7.53;;;5.53;;
12263;SDS011;6194;49.010;8.414;2023-04-06T00:39:36;6.80;;;5.47;;
12263;SDS011;6194;49.010;8.414;2023-04-06T00:42:01;7.27;;;5.43;;
12263;SDS011;6194;49.010;8.414;2023-04-06T00:44:37;7.80;;;5.70;;
12263;SDS011;6194;49.010;8.414;2023-04-06T00:47:03;7.93;;;5.73;;
12263;SDS011;6194;49.010;8.414;2023-04-06T00:49:28;6.97;;;5.77;;
12263;SDS011;6194;49.010;8.414;2023-04-06T00:51:54;7.47;;;6.10;;
12263;SDS011;6194;49.010;8.414;2023-04-06T00:54:20;6.90;;;5.90;;
12263;SDS011;6194;49.010;8.414;2023-04-06T00:56:45;6.23;;;5.63;;
12263;SDS011;6194;49.010;8.414;2023-04-06T00:59:11;6.10;;;5.33;;
12263;SDS011;6194;49.010;8.414;2023-04-06T01:01:37;5.97;;;5.47;;
12263;SDS011;6194;49.010;8.414;2023-04-06T01:04:03;7.03;;;5.43;;
12263;SDS011;6194;49.010;8.414;2023-04-06T01:06:28;6.27;;;5.60;;
12263;SDS011;6194;49.010;8.414;2023-04-06T01:08:54;7.43;;;5.60;;
12263;SDS011;6194;49.010;8.414;2023-04-06T01:11:20;6.13;;;5.57;;
12263;SDS011;6194;49.010;8.414;2023-04-06T01:13:46;7.60;;;5.40;;
12263;SDS011;6194;49.010;8.414;2023-04-06T01:16:11;9.40;;;5.20;;
12263;SDS011;6194;49.010;8.414;2023-04-06T01:18:37;6.17;;;5.47;;
12263;SDS011;6194;49.010;8.414;2023-04-06T01:21:03;7.10;;;5.40;;
12263;SDS011;6194;49.010;8.414;2023-04-06T01:23:29;6.57;;;5.87;;
12263;SDS011;6194;49.010;8.414;2023-04-06T01:25:55;8.47;;;5.63;;
12263;SDS011;6194;49.010;8.414;2023-04-06T01:28:20;6.60;;;5.73;;
12263;SDS011;6194;49.010;8.414;2023-04-06T01:30:46;7.10;;;5.97;;
12263;SDS011;6194;49.010;8.414;2023-04-06T01:33:12;8.40;;;6.27;;
12263;SDS011;6194;49.010;8.414;2023-04-06T01:35:37;6.60;;;5.53;;
12263;SDS011;6194;49.010;8.414;2023-04-06T01:38:03;6.23;;;4.83;;
12263;SDS011;6194;49.010;8.414;2023-04-06T01:40:28;6.63;;;4.93;;
12263;SDS011;6194;49.010;8.414;2023-04-06T01:42:54;7.10;;;5.30;;
12263;SDS011;6194;49.010;8.414;2023-04-06T01:45:20;6.00;;;5.30;;
12263;SDS011;6194;49.010;8.414;2023-04-06T01:47:46;7.47;;;5.37;;
12263;SDS011;6194;49.010;8.414;2023-04-06T01:50:11;6.33;;;4.90;;
12263;SDS011;6194;49.010;8.414;2023-04-06T01:52:37;6.20;;;5.00;;
12263;SDS011;6194;49.010;8.414;2023-04-06T01:55:03;6.10;;;5.40;;
12263;SDS011;6194;49.010;8.414;2023-04-06T01:57:29;5.80;;;5.20;;
12263;SDS011;6194;49.010;8.414;2023-04-06T01:59:54;6.30;;;5.70;;
12263;SDS011;6194;49.010;8.414;2023-04-06T02:02:20;5.93;;;4.70;;
12263;SDS011;6194;49.010;8.414;2023-04-06T02:04:45;6.17;;;4.83;;
12263;SDS011;6194;49.010;8.414;2023-04-06T02:07:11;6.07;;;5.30;;
12263;SDS011;6194;49.010;8.414;2023-04-06T02:09:37;5.50;;;5.00;;
12263;SDS011;6194;49.010;8.414;2023-04-06T02:12:02;5.57;;;5.07;;
12263;SDS011;6194;49.010;8.414;2023-04-06T02:14:28;7.77;;;4.80;;
12263;SDS011;6194;49.010;8.414;2023-04-06T02:16:53;5.40;;;4.70;;
12263;SDS011;6194;49.010;8.414;2023-04-06T02:19:19;6.70;;;4.60;;
12263;SDS011;6194;49.010;8.414;2023-04-06T02:21:45;5.33;;;4.27;;
12263;SDS011;6194;49.010;8.414;2023-04-06T02:24:11;5.97;;;4.50;;
12263;SDS011;6194;49.010;8.414;2023-04-06T02:26:36;5.37;;;4.80;;
12263;SDS011;6194;49.010;8.414;2023-04-06T02:29:02;6.03;;;4.53;;
12263;SDS011;6194;49.010;8.414;2023-04-06T02:31:27;6.20;;;4.87;;
12263;SDS011;6194;49.010;8.414;2023-04-06T02:33:54;5.80;;;5.00;;
12263;SDS011;6194;49.010;8.414;2023-04-06T02:36:19;5.90;;;5.23;;
12263;SDS011;6194;49.010;8.414;2023-04-06T02:38:45;8.73;;;5.33;;
12263;SDS011;6194;49.010;8.414;2023-04-06T02:41:10;7.30;;;5.07;;
12263;SDS011;6194;49.010;8.414;2023-04-06T02:43:36;7.50;;;5.30;;
12263;SDS011;6194;49.010;8.414;2023-04-06T02:46:02;5.80;;;5.30;;
12263;SDS011;6194;49.010;8.414;2023-04-06T02:48:27;6.73;;;5.23;;
12263;SDS011;6194;49.010;8.414;2023-04-06T02:50:53;6.57;;;5.20;;
12263;SDS011;6194;49.010;8.414;2023-04-06T02:53:19;6.67;;;5.50;;
12263;SDS011;6194;49.010;8.414;2023-04-06T02:55:45;6.97;;;5.60;;
12263;SDS011;6194;49.010;8.414;2023-04-06T02:58:10;6.87;;;5.43;;
12263;SDS011;6194;49.010;8.414;2023-04-06T03:00:36;5.77;;;5.27;;
12263;SDS011;6194;49.010;8.414;2023-04-06T03:03:02;6.47;;;5.87;;
12263;SDS011;6194;49.010;8.414;2023-04-06T03:05:28;6.10;;;5.50;;
12263;SDS011;6194;49.010;8.414;2023-04-06T03:07:53;6.07;;;5.47;;
12263;SDS011;6194;49.010;8.414;2023-04-06T03:10:19;7.37;;;5.23;;
12263;SDS011;6194;49.010;8.414;2023-04-06T03:12:44;9.23;;;5.30;;
12263;SDS011;6194;49.010;8.414;2023-04-06T03:15:10;7.33;;;5.50;;
12263;SDS011;6194;49.010;8.414;2023-04-06T03:17:36;7.10;;;5.50;;
12263;SDS011;6194;49.010;8.414;2023-04-06T03:20:02;6.53;;;5.83;;
12263;SDS011;6194;49.010;8.414;2023-04-06T03:22:28;8.63;;;5.73;;
12263;SDS011;6194;49.010;8.414;2023-04-06T03:24:54;6.60;;;5.50;;
12263;SDS011;6194;49.010;8.414;2023-04-06T03:27:20;6.30;;;5.40;;
12263;SDS011;6194;49.010;8.414;2023-04-06T03:29:45;5.37;;;4.87;;
12263;SDS011;6194;49.010;8.414;2023-04-06T03:32:11;5.70;;;5.20;;
12263;SDS011;6194;49.010;8.414;2023-04-06T03:34:37;8.83;;;5.60;;
12263;SDS011;6194;49.010;8.414;2023-04-06T03:37:04;5.80;;;5.20;;
12263;SDS011;6194;49.010;8.414;2023-04-06T03:39:29;6.37;;;5.60;;
12263;SDS011;6194;49.010;8.414;2023-04-06T03:41:55;5.77;;;5.20;;
12263;SDS011;6194;49.010;8.414;2023-04-06T03:44:21;6.10;;;5.50;;
12263;SDS011;6194;49.010;8.414;2023-04-06T03:46:46;7.00;;;5.33;;
12263;SDS011;6194;49.010;8.414;2023-04-06T03:49:12;8.53;;;5.70;;
12263;SDS011;6194;49.010;8.414;2023-04-06T03:51:37;9.07;;;5.83;;
12263;SDS011;6194;49.010;8.414;2023-04-06T03:54:03;7.57;;;6.53;;
12263;SDS011;6194;49.010;8.414;2023-04-06T03:56:29;9.23;;;5.90;;
12263;SDS011;6194;49.010;8.414;2023-04-06T03:58:55;7.07;;;5.70;;
12263;SDS011;6194;49.010;8.414;2023-04-06T04:01:21;7.00;;;6.00;;
12263;SDS011;6194;49.010;8.414;2023-04-06T04:03:46;6.77;;;5.93;;
12263;SDS011;6194;49.010;8.414;2023-04-06T04:06:12;9.07;;;6.70;;
12263;SDS011;6194;49.010;8.414;2023-04-06T04:08:38;7.03;;;5.60;;
12263;SDS011;6194;49.010;8.414;2023-04-06T04:11:03;8.03;;;6.60;;
12263;SDS011;6194;49.010;8.414;2023-04-06T04:13:29;8.10;;;6.17;;
12263;SDS011;6194;49.010;8.414;2023-04-06T04:15:55;7.53;;;6.70;;
12263;SDS011;6194;49.010;8.414;2023-04-06T04:18:21;8.03;;;6.43;;
12263;SDS011;6194;49.010;8.414;2023-04-06T04:20:46;6.80;;;6.07;;
12263;SDS011;6194;49.010;8.414;2023-04-06T04:23:15;9.27;;;6.30;;
12263;SDS011;6194;49.010;8.414;2023-04-06T04:25:43;8.07;;;5.67;;
12263;SDS011;6194;49.010;8.414;2023-04-06T04:28:08;7.83;;;5.83;;
12263;SDS011;6194;49.010;8.414;2023-04-06T04:30:34;6.77;;;6.07;;
12263;SDS011;6194;49.010;8.414;2023-04-06T04:33:00;6.80;;;6.10;;
12263;SDS011;6194;49.010;8.414;2023-04-06T04:35:26;9.40;;;6.57;;
12263;SDS011;6194;49.010;8.414;2023-04-06T04:37:51;7.40;;;6.33;;
12263;SDS011;6194;49.010;8.414;2023-04-06T04:40:17;7.07;;;6.30;;
12263;SDS011;6194;49.010;8.414;2023-04-06T04:42:43;7.77;;;6.80;;
12263;SDS011;6194;49.010;8.414;2023-04-06T04:45:09;7.30;;;6.17;;
12263;SDS011;6194;49.010;8.414;2023-04-06T04:47:35;9.07;;;6.23;;
12263;SDS011;6194;49.010;8.414;2023-04-06T04:50:00;7.67;;;5.90;;
12263;SDS011;6194;49.010;8.414;2023-04-06T04:52:26;7.73;;;6.00;;
12263;SDS011;6194;49.010;8.414;2023-04-06T04:54:51;7.70;;;6.07;;
12263;SDS011;6194;49.010;8.414;2023-04-06T04:57:17;7.87;;;6.40;;
12263;SDS011;6194;49.010;8.414;2023-04-06T04:59:43;7.30;;;5.73;;
12263;SDS011;6194;49.010;8.414;2023-04-06T05:02:08;6.63;;;5.83;;
12263;SDS011;6194;49.010;8.414;2023-04-06T05:04:35;7.30;;;5.87;;
12263;SDS011;6194;49.010;8.414;2023-04-06T05:07:04;8.80;;;6.00;;
12263;SDS011;6194;49.010;8.414;2023-04-06T05:09:31;8.30;;;6.33;;
12263;SDS011;6194;49.010;8.414;2023-04-06T05:11:57;8.33;;;6.30;;
12263;SDS011;6194;49.010;8.414;2023-04-06T05:14:24;7.03;;;6.33;;
12263;SDS011;6194;49.010;8.414;2023-04-06T05:16:49;12.20;;;6.17;;
12263;SDS011;6194;49.010;8.414;2023-04-06T05:19:15;6.67;;;5.90;;
12263;SDS011;6194;49.010;8.414;2023-04-06T05:21:41;9.73;;;6.07;;
12263;SDS011;6194;49.010;8.414;2023-04-06T05:24:06;6.83;;;5.80;;
12263;SDS011;6194;49.010;8.414;2023-04-06T05:26:33;6.67;;;6.00;;
12263;SDS011;6194;49.010;8.414;2023-04-06T05:28:59;11.23;;;5.87;;
12263;SDS011;6194;49.010;8.414;2023-04-06T05:31:25;8.83;;;5.57;;
12263;SDS011;6194;49.010;8.414;2023-04-06T05:33:50;6.10;;;5.20;;
12263;SDS011;6194;49.010;8.414;2023-04-06T05:36:16;6.17;;;4.70;;
12263;SDS011;6194;49.010;8.414;2023-04-06T05:38:42;6.83;;;5.00;;
12263;SDS011;6194;49.010;8.414;2023-04-06T05:41:07;7.83;;;5.50;;
12263;SDS011;6194;49.010;8.414;2023-04-06T05:43:33;7.70;;;4.70;;
12263;SDS011;6194;49.010;8.414;2023-04-06T05:45:58;19.63;;;12.10;;
12263;SDS011;6194;49.010;8.414;2023-04-06T05:48:24;8.07;;;6.43;;
12263;SDS011;6194;49.010;8.414;2023-04-06T05:50:50;7.23;;;5.10;;
12263;SDS011;6194;49.010;8.414;2023-04-06T05:53:16;5.20;;;4.70;;
12263;SDS011;6194;49.010;8.414;2023-04-06T05:55:41;8.63;;;4.77;;
12263;SDS011;6194;49.010;8.414;2023-04-06T05:58:07;8.70;;;4.50;;
12263;SDS011;6194;49.010;8.414;2023-04-06T06:00:34;8.03;;;4.57;;
12263;SDS011;6194;49.010;8.414;2023-04-06T06:03:00;5.50;;;4.43;;
12263;SDS011;6194;49.010;8.414;2023-04-06T06:05:29;4.97;;;4.50;;
12263;SDS011;6194;49.010;8.414;2023-04-06T06:07:54;7.67;;;4.40;;
12263;SDS011;6194;49.010;8.414;2023-04-06T06:10:21;6.50;;;4.47;;
12263;SDS011;6194;49.010;8.414;2023-04-06T06:12:47;8.00;;;4.77;;
12263;SDS011;6194;49.010;8.414;2023-04-06T06:15:13;7.23;;;4.30;;
12263;SDS011;6194;49.010;8.414;2023-04-06T06:17:38;8.23;;;4.60;;
12263;SDS011;6194;49.010;8.414;2023-04-06T06:20:07;8.13;;;4.73;;
12263;SDS011;6194;49.010;8.414;2023-04-06T06:22:33;7.23;;;4.80;;
12263;SDS011;6194;49.010;8.414;2023-04-06T06:24:58;5.10;;;4.60;;
12263;SDS011;6194;49.010;8.414;2023-04-06T06:27:24;10.00;;;5.00;;
12263;SDS011;6194;49.010;8.414;2023-04-06T06:29:50;5.57;;;4.60;;
12263;SDS011;6194;49.010;8.414;2023-04-06T06:32:15;5.67;;;4.33;;
12263;SDS011;6194;49.010;8.414;2023-04-06T06:34:41;5.93;;;4.83;;
12263;SDS011;6194;49.010;8.414;2023-04-06T06:37:07;5.37;;;4.47;;
12263;SDS011;6194;49.010;8.414;2023-04-06T06:39:32;5.67;;;4.57;;
12263;SDS011;6194;49.010;8.414;2023-04-06T06:41:58;7.10;;;4.77;;
12263;SDS011;6194;49.010;8.414;2023-04-06T06:44:26;9.23;;;5.03;;
12263;SDS011;6194;49.010;8.414;2023-04-06T06:46:52;4.87;;;4.37;;
12263;SDS011;6194;49.010;8.414;2023-04-06T06:49:18;5.87;;;4.70;;
12263;SDS011;6194;49.010;8.414;2023-04-06T06:51:44;5.43;;;4.60;;
12263;SDS011;6194;49.010;8.414;2023-04-06T06:54:11;5.67;;;4.50;;
12263;SDS011;6194;49.010;8.414;2023-04-06T06:56:37;4.57;;;4.07;;
12263;SDS011;6194;49.010;8.414;2023-04-06T06:59:03;7.23;;;4.80;;
12263;SDS011;6194;49.010;8.414;2023-04-06T07:01:30;5.83;;;4.70;;
12263;SDS011;6194;49.010;8.414;2023-04-06T07:03:57;6.20;;;4.60;;
12263;SDS011;6194;49.010;8.414;2023-04-06T07:06:22;5.00;;;4.40;;
12263;SDS011;6194;49.010;8.414;2023-04-06T07:08:48;5.00;;;4.50;;
12263;SDS011;6194;49.010;8.414;2023-04-06T07:11:14;5.77;;;4.90;;
12263;SDS011;6194;49.010;8.414;2023-04-06T07:13:39;7.97;;;5.60;;
12263;SDS011;6194;49.010;8.414;2023-04-06T07:16:05;8.83;;;4.80;;
12263;SDS011;6194;49.010;8.414;2023-04-06T07:18:31;8.10;;;4.60;;
12263;SDS011;6194;49.010;8.414;2023-04-06T07:20:56;5.13;;;4.63;;
12263;SDS011;6194;49.010;8.414;2023-04-06T07:23:22;7.30;;;4.90;;
12263;SDS011;6194;49.010;8.414;2023-04-06T07:25:48;5.97;;;4.60;;
12263;SDS011;6194;49.010;8.414;2023-04-06T07:28:17;6.07;;;4.83;;
12263;SDS011;6194;49.010;8.414;2023-04-06T07:30:42;7.97;;;4.70;;
12263;SDS011;6194;49.010;8.414;2023-04-06T07:33:08;5.60;;;4.80;;
12263;SDS011;6194;49.010;8.414;2023-04-06T07:35:34;7.83;;;5.13;;
12263;SDS011;6194;49.010;8.414;2023-04-06T07:38:01;6.37;;;4.77;;
12263;SDS011;6194;49.010;8.414;2023-04-06T07:40:27;6.20;;;5.30;;
12263;SDS011;6194;49.010;8.414;2023-04-06T07:42:53;7.07;;;4.83;;
12263;SDS011;6194;49.010;8.414;2023-04-06T07:45:18;5.57;;;5.03;;
12263;SDS011;6194;49.010;8.414;2023-04-06T07:47:45;5.20;;;4.70;;
12263;SDS011;6194;49.010;8.414;2023-04-06T07:50:11;6.03;;;4.97;;
12263;SDS011;6194;49.010;8.414;2023-04-06T07:52:36;6.60;;;5.10;;
12263;SDS011;6194;49.010;8.414;2023-04-06T07:55:03;4.90;;;4.40;;
12263;SDS011;6194;49.010;8.414;2023-04-06T07:57:29;5.00;;;4.50;;
12263;SDS011;6194;49.010;8.414;2023-04-06T07:59:55;5.00;;;4.53;;
12263;SDS011;6194;49.010;8.414;2023-04-06T08:02:20;6.07;;;4.87;;
12263;SDS011;6194;49.010;8.414;2023-04-06T08:04:47;6.30;;;4.50;;
12263;SDS011;6194;49.010;8.414;2023-04-06T08:07:13;5.30;;;4.80;;
12263;SDS011;6194;49.010;8.414;2023-04-06T08:09:38;5.50;;;4.90;;
12263;SDS011;6194;49.010;8.414;2023-04-06T08:12:04;7.90;;;4.70;;
12263;SDS011;6194;49.010;8.414;2023-04-06T08:14:30;8.13;;;4.93;;
12263;SDS011;6194;49.010;8.414;2023-04-06T08:16:56;4.57;;;4.10;;
12263;SDS011;6194;49.010;8.414;2023-04-06T08:19:22;6.30;;;4.90;;
12263;SDS011;6194;49.010;8.414;2023-04-06T08:21:47;5.47;;;4.87;;
12263;SDS011;6194;49.010;8.414;2023-04-06T08:24:13;8.33;;;4.93;;
12263;SDS011;6194;49.010;8.414;2023-04-06T08:26:39;8.00;;;5.00;;
12263;SDS011;6194;49.010;8.414;2023-04-06T08:29:05;6.37;;;4.87;;
12263;SDS011;6194;49.010;8.414;2023-04-06T08:31:32;4.93;;;4.43;;
12263;SDS011;6194;49.010;8.414;2023-04-06T08:33:58;6.40;;;4.57;;
12263;SDS011;6194;49.010;8.414;2023-04-06T08:36:24;5.60;;;4.47;;
12263;SDS011;6194;49.010;8.414;2023-04-06T08:38:50;5.60;;;4.53;;
12263;SDS011;6194;49.010;8.414;2023-04-06T08:41:15;4.97;;;4.57;;
12263;SDS011;6194;49.010;8.414;2023-04-06T08:43:44;5.10;;;4.60;;
12263;SDS011;6194;49.010;8.414;2023-04-06T08:46:10;5.50;;;4.83;;
12263;SDS011;6194;49.010;8.414;2023-04-06T08:48:36;8.70;;;5.27;;
12263;SDS011;6194;49.010;8.414;2023-04-06T08:51:04;5.03;;;4.53;;
12263;SDS011;6194;49.010;8.414;2023-04-06T08:53:30;6.80;;;5.13;;
12263;SDS011;6194;49.010;8.414;2023-04-06T08:55:57;5.90;;;5.30;;
12263;SDS011;6194;49.010;8.414;2023-04-06T08:58:23;6.27;;;5.23;;
12263;SDS011;6194;49.010;8.414;2023-04-06T09:00:50;5.80;;;5.13;;
12263;SDS011;6194;49.010;8.414;2023-04-06T09:03:16;6.83;;;5.50;;
12263;SDS011;6194;49.010;8.414;2023-04-06T09:05:43;5.93;;;4.90;;
12263;SDS011;6194;49.010;8.414;2023-04-06T09:08:10;7.57;;;5.10;;
12263;SDS011;6194;49.010;8.414;2023-04-06T09:10:38;4.90;;;4.50;;
12263;SDS011;6194;49.010;8.414;2023-04-06T09:13:06;5.10;;;4.60;;
12263;SDS011;6194;49.010;8.414;2023-04-06T09:15:32;7.63;;;5.40;;
12263;SDS011;6194;49.010;8.414;2023-04-06T09:17:59;7.77;;;5.10;;
12263;SDS011;6194;49.010;8.414;2023-04-06T09:20:25;6.57;;;5.47;;
12263;SDS011;6194;49.010;8.414;2023-04-06T09:22:52;6.37;;;5.20;;
12263;SDS011;6194;49.010;8.414;2023-04-06T09:25:19;5.57;;;5.07;;
12263;SDS011;6194;49.010;8.414;2023-04-06T09:27:47;6.00;;;5.00;;
12263;SDS011;6194;49.010;8.414;2023-04-06T09:30:14;6.60;;;5.60;;
12263;SDS011;6194;49.010;8.414;2023-04-06T09:32:51;6.27;;;4.83;;
12263;SDS011;6194;49.010;8.414;2023-04-06T09:35:18;5.40;;;4.90;;
12263;SDS011;6194;49.010;8.414;2023-04-06T09:37:48;9.57;;;5.43;;
12263;SDS011;6194;49.010;8.414;2023-04-06T09:40:15;5.70;;;5.03;;
12263;SDS011;6194;49.010;8.414;2023-04-06T09:42:44;5.63;;;5.00;;
12263;SDS011;6194;49.010;8.414;2023-04-06T09:45:11;6.07;;;5.47;;
12263;SDS011;6194;49.010;8.414;2023-04-06T09:47:37;6.20;;;5.40;;
12263;SDS011;6194;49.010;8.414;2023-04-06T09:50:05;7.27;;;5.73;;
12263;SDS011;6194;49.010;8.414;2023-04-06T09:52:33;7.07;;;5.50;;
12263;SDS011;6194;49.010;8.414;2023-04-06T09:55:05;7.30;;;5.67;;
12263;SDS011;6194;49.010;8.414;2023-04-06T09:58:00;7.00;;;6.07;;
12263;SDS011;6194;49.010;8.414;2023-04-06T10:00:29;6.77;;;6.17;;
12263;SDS011;6194;49.010;8.414;2023-04-06T10:08:13;7.37;;;6.57;;
12263;SDS011;6194;49.010;8.414;2023-04-06T10:10:40;8.10;;;6.60;;
12263;SDS011;6194;49.010;8.414;2023-04-06T10:13:06;6.70;;;6.00;;
12263;SDS011;6194;49.010;8.414;2023-04-06T10:15:35;9.97;;;6.10;;
12263;SDS011;6194;49.010;8.414;2023-04-06T10:18:02;7.93;;;6.60;;
12263;SDS011;6194;49.010;8.414;2023-04-06T10:25:56;6.97;;;5.70;;
12263;SDS011;6194;49.010;8.414;2023-04-06T10:28:23;6.70;;;5.90;;
12263;SDS011;6194;49.010;8.414;2023-04-06T10:30:49;6.50;;;5.90;;
12263;SDS011;6194;49.010;8.414;2023-04-06T10:33:22;7.50;;;6.70;;
12263;SDS011;6194;49.010;8.414;2023-04-06T10:35:48;6.90;;;6.20;;
12263;SDS011;6194;49.010;8.414;2023-04-06T10:38:14;8.00;;;6.33;;
12263;SDS011;6194;49.010;8.414;2023-04-06T10:40:40;6.73;;;6.13;;
12263;SDS011;6194;49.010;8.414;2023-04-06T10:43:10;7.57;;;6.87;;
12263;SDS011;6194;49.010;8.414;2023-04-06T10:45:37;7.07;;;6.20;;
12263;SDS011;6194;49.010;8.414;2023-04-06T10:48:16;6.60;;;6.00;;
12263;SDS011;6194;49.010;8.414;2023-04-06T10:50:48;6.63;;;6.00;;
12263;SDS011;6194;49.010;8.414;2023-04-06T10:53:22;6.07;;;5.50;;
12263;SDS011;6194;49.010;8.414;2023-04-06T10:55:52;6.30;;;5.70;;
12263;SDS011;6194;49.010;8.414;2023-04-06T10:58:20;6.30;;;5.70;;
12263;SDS011;6194;49.010;8.414;2023-04-06T11:00:50;7.10;;;5.43;;
12263;SDS011;6194;49.010;8.414;2023-04-06T11:03:16;7.37;;;5.40;;
12263;SDS011;6194;49.010;8.414;2023-04-06T11:05:45;6.67;;;5.90;;
12263;SDS011;6194;49.010;8.414;2023-04-06T11:11:08;6.50;;;5.47;;
12263;SDS011;6194;49.010;8.414;2023-04-06T11:13:40;6.33;;;5.67;;
12263;SDS011;6194;49.010;8.414;2023-04-06T11:16:14;6.97;;;6.00;;
12263;SDS011;6194;49.010;8.414;2023-04-06T11:29:19;6.70;;;6.00;;
12263;SDS011;6194;49.010;8.414;2023-04-06T11:34:17;6.65;;;6.00;;
12263;SDS011;6194;49.010;8.414;2023-04-06T11:36:44;6.82;;;6.00;;
12263;SDS011;6194;49.010;8.414;2023-04-06T11:39:21;6.68;;;6.07;;
12263;SDS011;6194;49.010;8.414;2023-04-06T11:41:52;7.45;;;6.15;;
12263;SDS011;6194;49.010;8.414;2023-04-06T11:46:58;8.00;;;6.22;;
12263;SDS011;6194;49.010;8.414;2023-04-06T11:49:30;6.63;;;6.03;;
12263;SDS011;6194;49.010;8.414;2023-04-06T11:51:57;8.85;;;6.20;;
12263;SDS011;6194;49.010;8.414;2023-04-06T11:54:33;6.88;;;5.90;;
12263;SDS011;6194;49.010;8.414;2023-04-06T11:57:00;6.60;;;5.90;;
12263;SDS011;6194;49.010;8.414;2023-04-06T11:59:26;6.90;;;6.15;;
12263;SDS011;6194;49.010;8.414;2023-04-06T12:01:52;7.10;;;5.63;;
12263;SDS011;6194;49.010;8.414;2023-04-06T12:04:18;7.38;;;5.63;;
12263;SDS011;6194;49.010;8.414;2023-04-06T12:06:44;6.38;;;5.78;;
12263;SDS011;6194;49.010;8.414;2023-04-06T12:09:10;6.60;;;5.35;;
12263;SDS011;6194;49.010;8.414;2023-04-06T12:11:36;5.72;;;5.22;;
12263;SDS011;6194;49.010;8.414;2023-04-06T12:14:01;9.98;;;5.28;;
12263;SDS011;6194;49.010;8.414;2023-04-06T12:16:29;6.07;;;5.47;;
12263;SDS011;6194;49.010;8.414;2023-04-06T12:18:55;6.00;;;5.40;;
12263;SDS011;6194;49.010;8.414;2023-04-06T12:21:21;6.65;;;5.60;;
12263;SDS011;6194;49.010;8.414;2023-04-06T12:23:47;5.97;;;5.47;;
12263;SDS011;6194;49.010;8.414;2023-04-06T12:26:13;6.63;;;5.90;;
12263;SDS011;6194;49.010;8.414;2023-04-06T12:28:38;7.55;;;5.70;;
12263;SDS011;6194;49.010;8.414;2023-04-06T12:31:04;6.05;;;5.47;;
12263;SDS011;6194;49.010;8.414;2023-04-06T12:33:30;6.32;;;5.70;;
12263;SDS011;6194;49.010;8.414;2023-04-06T12:35:55;6.70;;;5.60;;
12263;SDS011;6194;49.010;8.414;2023-04-06T12:38:21;7.00;;;6.20;;
12263;SDS011;6194;49.010;8.414;2023-04-06T12:40:47;6.18;;;5.60;;
12263;SDS011;6194;49.010;8.414;2023-04-06T12:43:13;6.47;;;5.90;;
12263;SDS011;6194;49.010;8.414;2023-04-06T12:45:39;6.07;;;5.57;;
12263;SDS011;6194;49.010;8.414;2023-04-06T12:48:05;6.03;;;5.45;;
12263;SDS011;6194;49.010;8.414;2023-04-06T12:50:32;10.32;;;5.63;;
12263;SDS011;6194;49.010;8.414;2023-04-06T12:52:57;6.43;;;5.80;;
12263;SDS011;6194;49.010;8.414;2023-04-06T12:55:23;6.18;;;5.68;;
12263;SDS011;6194;49.010;8.414;2023-04-06T12:57:49;5.60;;;5.10;;
12263;SDS011;6194;49.010;8.414;2023-04-06T13:00:15;6.38;;;5.82;;
12263;SDS011;6194;49.010;8.414;2023-04-06T13:02:41;5.70;;;5.20;;
12263;SDS011;6194;49.010;8.414;2023-04-06T13:05:11;7.57;;;5.55;;
12263;SDS011;6194;49.010;8.414;2023-04-06T13:07:38;6.13;;;5.53;;
12263;SDS011;6194;49.010;8.414;2023-04-06T13:10:03;7.85;;;5.60;;
12263;SDS011;6194;49.010;8.414;2023-04-06T13:12:30;6.55;;;5.85;;
12263;SDS011;6194;49.010;8.414;2023-04-06T13:14:55;5.95;;;5.45;;
12263;SDS011;6194;49.010;8.414;2023-04-06T13:17:21;6.25;;;5.65;;
12263;SDS011;6194;49.010;8.414;2023-04-06T13:19:47;6.55;;;5.03;;
12263;SDS011;6194;49.010;8.414;2023-04-06T13:22:13;5.97;;;5.25;;
12263;SDS011;6194;49.010;8.414;2023-04-06T13:24:38;6.18;;;5.68;;
12263;SDS011;6194;49.010;8.414;2023-04-06T13:27:04;5.45;;;5.05;;
12263;SDS011;6194;49.010;8.414;2023-04-06T13:29:30;5.82;;;5.20;;
12263;SDS011;6194;49.010;8.414;2023-04-06T13:31:55;5.43;;;4.93;;
12263;SDS011;6194;49.010;8.414;2023-04-06T13:34:21;6.50;;;4.75;;
12263;SDS011;6194;49.010;8.414;2023-04-06T13:36:47;5.13;;;4.63;;
12263;SDS011;6194;49.010;8.414;2023-04-06T13:39:12;8.23;;;5.35;;
12263;SDS011;6194;49.010;8.414;2023-04-06T13:41:38;5.60;;;5.10;;
12263;SDS011;6194;49.010;8.414;2023-04-06T13:44:05;5.18;;;4.70;;
12263;SDS011;6194;49.010;8.414;2023-04-06T13:46:30;5.90;;;5.30;;
12263;SDS011;6194;49.010;8.414;2023-04-06T13:48:57;5.55;;;5.03;;
12263;SDS011;6194;49.010;8.414;2023-04-06T13:51:22;5.72;;;5.15;;
12263;SDS011;6194;49.010;8.414;2023-04-06T13:53:48;5.47;;;4.97;;
12263;SDS011;6194;49.010;8.414;2023-04-06T13:56:17;5.15;;;4.75;;
12263;SDS011;6194;49.010;8.414;2023-04-06T13:58:43;6.50;;;5.30;;
12263;SDS011;6194;49.010;8.414;2023-04-06T14:01:08;5.38;;;4.97;;
12263;SDS011;6194;49.010;8.414;2023-04-06T14:03:34;5.22;;;4.72;;
12263;SDS011;6194;49.010;8.414;2023-04-06T14:06:00;5.38;;;4.88;;
12263;SDS011;6194;49.010;8.414;2023-04-06T14:08:26;5.65;;;5.15;;
12263;SDS011;6194;49.010;8.414;2023-04-06T14:10:52;5.43;;;4.93;;
12263;SDS011;6194;49.010;8.414;2023-04-06T14:13:19;6.97;;;5.30;;
12263;SDS011;6194;49.010;8.414;2023-04-06T14:15:44;6.40;;;5.30;;
12263;SDS011;6194;49.010;8.414;2023-04-06T14:18:10;5.95;;;4.82;;
12263;SDS011;6194;49.010;8.414;2023-04-06T14:20:36;5.70;;;5.20;;
12263;SDS011;6194;49.010;8.414;2023-04-06T14:23:02;5.85;;;5.35;;
12263;SDS011;6194;49.010;8.414;2023-04-06T14:25:28;5.97;;;5.30;;
12263;SDS011;6194;49.010;8.414;2023-04-06T14:27:56;6.95;;;5.60;;
12263;SDS011;6194;49.010;8.414;2023-04-06T14:30:21;6.28;;;5.68;;
12263;SDS011;6194;49.010;8.414;2023-04-06T14:32:47;5.78;;;5.28;;
12263;SDS011;6194;49.010;8.414;2023-04-06T14:35:13;6.10;;;5.50;;
12263;SDS011;6194;49.010;8.414;2023-04-06T14:37:38;6.68;;;6.03;;
12263;SDS011;6194;49.010;8.414;2023-04-06T14:40:04;7.63;;;5.95;;
12263;SDS011;6194;49.010;8.414;2023-04-06T14:42:30;6.75;;;6.05;;
12263;SDS011;6194;49.010;8.414;2023-04-06T14:44:56;6.72;;;6.13;;
12263;SDS011;6194;49.010;8.414;2023-04-06T14:47:22;7.72;;;6.57;;
12263;SDS011;6194;49.010;8.414;2023-04-06T14:49:51;6.97;;;6.28;;
12263;SDS011;6194;49.010;8.414;2023-04-06T14:52:18;7.47;;;6.70;;
12263;SDS011;6194;49.010;8.414;2023-04-06T14:54:44;7.35;;;6.55;;
12263;SDS011;6194;49.010;8.414;2023-04-06T14:57:10;6.95;;;6.25;;
12263;SDS011;6194;49.010;8.414;2023-04-06T14:59:35;7.07;;;6.30;;
12263;SDS011;6194;49.010;8.414;2023-04-06T15:02:01;7.85;;;7.15;;
12263;SDS011;6194;49.010;8.414;2023-04-06T15:04:28;7.35;;;6.47;;
12263;SDS011;6194;49.010;8.414;2023-04-06T15:06:54;9.07;;;6.20;;
12263;SDS011;6194;49.010;8.414;2023-04-06T15:09:20;7.57;;;6.80;;
12263;SDS011;6194;49.010;8.414;2023-04-06T15:11:46;6.72;;;6.10;;
12263;SDS011;6194;49.010;8.414;2023-04-06T15:14:11;9.30;;;6.95;;
12263;SDS011;6194;49.010;8.414;2023-04-06T15:16:37;7.35;;;6.65;;
12263;SDS011;6194;49.010;8.414;2023-04-06T15:19:02;8.70;;;6.80;;
12263;SDS011;6194;49.010;8.414;2023-04-06T15:21:28;8.55;;;6.00;;
12263;SDS011;6194;49.010;8.414;2023-04-06T15:23:55;8.02;;;6.63;;